Time;durP1;ratioP1;P1;durP2;ratioP2;P2;SDS_P1;SDS_P2;PMS_P1;PMS_P2;Temp;Humidity;BMP_temperature;BMP_pressure;BME280_temperature;BME280_humidity;BME280_pressure;Samples;Min_cycle;Max_cycle;Signal;HPM_P1;HPM_P2
2021/04/14 00:02:16;;;;;;;7.43;4.32;;;;;;;;;;5028657;28;20053;-88
2021/04/14 00:04:43;;;;;;;8.77;4.55;;;;;;;;;;5011077;28;20053;-89
2021/04/14 00:07:10;;;;;;;8.75;4.20;;;;;;;;;;5028461;28;20049;-90
2021/04/14 00:09:36;;;;;;;7.45;3.85;;;;;;;;;;5009488;28;20049;-88
2021/04/14 00:12:03;;;;;;;6.80;4.00;;;;;;;;;;5010986;28;20057;-89
2021/04/14 00:14:29;;;;;;;9.73;4.57;;;;;;;;;;5029264;28;20041;-89
2021/04/14 00:16:56;;;;;;;8.05;4.90;;;;;;;;;;5028435;28;20041;-88
2021/04/14 00:19:23;;;;;;;6.93;4.03;;;;;;;;;;5024800;28;20498;-88
2021/04/14 00:21:50;;;;;;;7.70;4.90;;;;;;;;;;5011089;28;20053;-87
2021/04/14 00:24:17;;;;;;;6.75;4.20;;;;;;;;;;4993089;28;20410;-89
2021/04/14 00:26:43;;;;;;;8.43;4.50;;;;;;;;;;5002070;28;20099;-88
2021/04/14 00:29:09;;;;;;;7.38;4.40;;;;;;;;;;5028294;28;20145;-89
2021/04/14 00:31:37;;;;;;;7.07;4.20;;;;;;;;;;5011416;28;20084;-89
2021/04/14 00:34:14;;;;;;;7.35;4.45;;;;;;;;;;5027248;28;20476;-89
2021/04/14 00:36:42;;;;;;;7.55;4.63;;;;;;;;;;5014114;28;20053;-88
2021/04/14 00:39:11;;;;;;;5.65;4.38;;;;;;;;;;4984028;28;20061;-88
2021/04/14 00:41:38;;;;;;;7.72;5.28;;;;;;;;;;5010098;28;20041;-88
2021/04/14 00:44:05;;;;;;;8.15;5.70;;;;;;;;;;4995054;28;20409;-88
2021/04/14 00:46:31;;;;;;;7.07;5.65;;;;;;;;;;5008575;28;20130;-88
2021/04/14 00:48:57;;;;;;;10.73;6.57;;;;;;;;;;5028286;28;20041;-89
2021/04/14 00:51:25;;;;;;;8.93;6.22;;;;;;;;;;5008899;28;20050;-89
2021/04/14 00:53:51;;;;;;;9.85;6.43;;;;;;;;;;5012147;28;20049;-88
2021/04/14 00:56:17;;;;;;;9.05;6.82;;;;;;;;;;5009396;28;20049;-88
2021/04/14 00:58:44;;;;;;;7.47;5.30;;;;;;;;;;5008337;28;20045;-88
2021/04/14 01:01:10;;;;;;;7.97;5.32;;;;;;;;;;5028456;28;20053;-89
2021/04/14 01:03:37;;;;;;;8.38;5.95;;;;;;;;;;5009155;28;20482;-88
2021/04/14 01:06:09;;;;;;;10.50;6.13;;;;;;;;;;5019734;28;20048;-89
2021/04/14 01:08:36;;;;;;;12.40;5.57;;;;;;;;;;5037428;28;20045;-88
2021/04/14 01:11:03;;;;;;;10.32;6.20;;;;;;;;;;5010265;28;20069;-89
2021/04/14 01:13:30;;;;;;;8.68;5.45;;;;;;;;;;5011633;28;20467;-88
2021/04/14 01:15:56;;;;;;;9.93;5.40;;;;;;;;;;5016285;28;20536;-87
2021/04/14 01:18:24;;;;;;;6.75;4.35;;;;;;;;;;5007914;28;20045;-88
2021/04/14 01:20:50;;;;;;;7.22;4.10;;;;;;;;;;5006079;28;20490;-89
2021/04/14 01:23:17;;;;;;;7.82;4.18;;;;;;;;;;5007153;28;20049;-89
2021/04/14 01:25:44;;;;;;;5.97;3.78;;;;;;;;;;5007100;28;20050;-88
2021/04/14 01:28:17;;;;;;;6.95;4.20;;;;;;;;;;5005161;28;20060;-89
2021/04/14 01:30:45;;;;;;;6.97;4.05;;;;;;;;;;5008869;28;20164;-88
2021/04/14 01:33:13;;;;;;;6.90;4.30;;;;;;;;;;5005506;28;20050;-88
2021/04/14 01:35:39;;;;;;;9.30;4.85;;;;;;;;;;5017704;28;20048;-89
2021/04/14 01:38:06;;;;;;;6.65;4.82;;;;;;;;;;5010590;28;20107;-88
2021/04/14 01:40:33;;;;;;;7.07;4.53;;;;;;;;;;5005260;28;20076;-88
2021/04/14 01:42:59;;;;;;;7.45;4.97;;;;;;;;;;4984168;28;20430;-88
2021/04/14 01:45:29;;;;;;;9.98;5.45;;;;;;;;;;5009629;28;20068;-88
2021/04/14 01:47:55;;;;;;;7.40;5.72;;;;;;;;;;5019545;28;20042;-89
2021/04/14 01:50:22;;;;;;;10.95;5.85;;;;;;;;;;5022931;28;20034;-88
2021/04/14 01:52:50;;;;;;;10.40;6.00;;;;;;;;;;5008684;28;20061;-86
2021/04/14 01:55:17;;;;;;;8.32;5.43;;;;;;;;;;4995191;28;20064;-90
2021/04/14 01:57:44;;;;;;;11.10;6.72;;;;;;;;;;5025545;28;20080;-89
2021/04/14 02:00:15;;;;;;;7.75;5.90;;;;;;;;;;5026900;28;20123;-89
2021/04/14 02:02:42;;;;;;;7.63;6.13;;;;;;;;;;5006991;28;20128;-88
2021/04/14 02:05:09;;;;;;;8.35;6.03;;;;;;;;;;5024409;28;20588;-89
2021/04/14 02:07:36;;;;;;;9.35;5.80;;;;;;;;;;5008637;28;20037;-87
2021/04/14 02:10:05;;;;;;;9.02;4.97;;;;;;;;;;5013348;28;20049;-87
2021/04/14 02:12:31;;;;;;;5.57;4.43;;;;;;;;;;5026014;28;20057;-89
2021/04/14 02:14:57;;;;;;;6.07;4.97;;;;;;;;;;5029487;28;20551;-89
2021/04/14 02:17:24;;;;;;;7.05;4.72;;;;;;;;;;5023410;28;20046;-88
2021/04/14 02:19:50;;;;;;;8.15;4.28;;;;;;;;;;5019908;28;20046;-87
2021/04/14 02:22:17;;;;;;;6.78;4.13;;;;;;;;;;5006369;28;20054;-89
2021/04/14 02:25:04;;;;;;;6.20;4.13;;;;;;;;;;4992992;28;20061;-88
2021/04/14 02:27:31;;;;;;;5.72;3.70;;;;;;;;;;4988012;28;20049;-89
2021/04/14 02:29:57;;;;;;;5.43;3.65;;;;;;;;;;5027061;28;20504;-88
2021/04/14 02:32:23;;;;;;;5.05;3.42;;;;;;;;;;5025020;28;20054;-87
2021/04/14 02:34:50;;;;;;;4.82;3.80;;;;;;;;;;5007294;28;20105;-88
2021/04/14 02:37:20;;;;;;;6.90;3.30;;;;;;;;;;5026139;28;20053;-88
2021/04/14 02:40:08;;;;;;;6.07;3.42;;;;;;;;;;4995175;28;20054;-88
2021/04/14 02:42:35;;;;;;;6.15;3.45;;;;;;;;;;5007329;28;20045;-88
2021/04/14 02:45:24;;;;;;;4.25;3.40;;;;;;;;;;4998295;28;20061;-88
2021/04/14 02:47:50;;;;;;;5.30;3.60;;;;;;;;;;5029806;28;20588;-88
2021/04/14 02:50:17;;;;;;;4.10;3.33;;;;;;;;;;5031253;28;20115;-89
2021/04/14 02:53:04;;;;;;;4.88;3.50;;;;;;;;;;4973749;28;20476;-89
2021/04/14 02:55:32;;;;;;;5.10;3.10;;;;;;;;;;5010467;28;20050;-88
2021/04/14 02:58:12;;;;;;;4.28;3.00;;;;;;;;;;5013355;28;20050;-88
2021/04/14 03:00:41;;;;;;;4.60;3.03;;;;;;;;;;5029243;28;20050;-88
2021/04/14 03:03:07;;;;;;;4.85;3.20;;;;;;;;;;5011942;28;20132;-89
2021/04/14 03:05:35;;;;;;;6.22;3.28;;;;;;;;;;5026035;28;20042;-88
2021/04/14 03:08:01;;;;;;;5.03;3.10;;;;;;;;;;5011741;28;20163;-88
2021/04/14 03:10:28;;;;;;;7.80;3.15;;;;;;;;;;5028581;28;20140;-88
2021/04/14 03:12:54;;;;;;;6.25;3.20;;;;;;;;;;5012202;28;20042;-88
2021/04/14 03:15:22;;;;;;;6.72;3.20;;;;;;;;;;5030952;28;20050;-87
2021/04/14 03:17:49;;;;;;;4.68;3.03;;;;;;;;;;5012877;28;20553;-88
2021/04/14 03:20:35;;;;;;;5.70;3.10;;;;;;;;;;4980094;28;20053;-88
2021/04/14 03:23:01;;;;;;;5.97;2.70;;;;;;;;;;4972590;28;20061;-88
2021/04/14 03:25:47;;;;;;;5.22;3.15;;;;;;;;;;4978180;28;20139;-88
2021/04/14 03:28:13;;;;;;;5.07;2.85;;;;;;;;;;4964600;28;20057;-87
2021/04/14 03:30:41;;;;;;;7.20;3.05;;;;;;;;;;4989626;28;20105;-88
2021/04/14 03:33:08;;;;;;;5.57;3.08;;;;;;;;;;4989980;28;20521;-87
2021/04/14 03:35:36;;;;;;;5.05;2.65;;;;;;;;;;4987229;28;20034;-88
2021/04/14 03:38:03;;;;;;;5.22;2.72;;;;;;;;;;4989875;28;20057;-88
2021/04/14 03:40:49;;;;;;;7.22;3.40;;;;;;;;;;4988485;28;20633;-87
2021/04/14 03:43:16;;;;;;;3.88;3.10;;;;;;;;;;4972787;28;20478;-89
2021/04/14 03:45:45;;;;;;;4.57;3.17;;;;;;;;;;4973422;28;20109;-88
2021/04/14 03:48:14;;;;;;;4.13;3.13;;;;;;;;;;4973366;28;20376;-88
2021/04/14 03:50:40;;;;;;;7.47;3.63;;;;;;;;;;4989734;28;20046;-88
2021/04/14 03:53:23;;;;;;;5.65;3.53;;;;;;;;;;4988984;28;20384;-88
2021/04/14 03:55:55;;;;;;;6.80;3.58;;;;;;;;;;4988563;28;20050;-86
2021/04/14 03:58:21;;;;;;;5.82;3.63;;;;;;;;;;4987322;28;20398;-88
2021/04/14 04:00:50;;;;;;;8.32;4.47;;;;;;;;;;4991482;28;20042;-88
2021/04/14 04:03:16;;;;;;;8.45;4.28;;;;;;;;;;4988536;28;20047;-87
2021/04/14 04:05:44;;;;;;;6.60;3.80;;;;;;;;;;4977105;28;20046;-89
2021/04/14 04:08:30;;;;;;;6.50;3.97;;;;;;;;;;4939576;28;20479;-88
2021/04/14 04:10:56;;;;;;;6.20;3.45;;;;;;;;;;4989571;28;20104;-88
2021/04/14 04:13:23;;;;;;;9.75;3.88;;;;;;;;;;4987157;28;20510;-89
2021/04/14 04:16:09;;;;;;;5.68;3.60;;;;;;;;;;4961829;28;20100;-88
2021/04/14 04:18:38;;;;;;;6.85;4.00;;;;;;;;;;4987984;28;20042;-88
2021/04/14 04:21:06;;;;;;;4.97;4.00;;;;;;;;;;5005561;28;20405;-88
2021/04/14 04:23:32;;;;;;;8.35;3.85;;;;;;;;;;5025041;28;20047;-87
2021/04/14 04:25:58;;;;;;;7.53;4.47;;;;;;;;;;5024303;28;20037;-88
2021/04/14 04:28:25;;;;;;;12.00;4.18;;;;;;;;;;5010137;28;20049;-88
2021/04/14 04:30:54;;;;;;;4.13;3.15;;;;;;;;;;5027682;28;20059;-89
2021/04/14 04:33:21;;;;;;;5.10;3.28;;;;;;;;;;5009018;28;20041;-89
2021/04/14 04:36:07;;;;;;;3.83;2.80;;;;;;;;;;5000235;28;20068;-88
2021/04/14 04:38:34;;;;;;;4.53;3.28;;;;;;;;;;5027751;28;20049;-88
2021/04/14 04:41:02;;;;;;;4.53;3.20;;;;;;;;;;5011012;28;20556;-90
2021/04/14 04:43:28;;;;;;;4.65;3.80;;;;;;;;;;5010880;28;20053;-89
2021/04/14 04:45:56;;;;;;;8.30;4.03;;;;;;;;;;5028936;28;20486;-89
2021/04/14 04:48:22;;;;;;;5.63;3.47;;;;;;;;;;5028812;28;20048;-91
2021/04/14 04:50:48;;;;;;;6.88;4.07;;;;;;;;;;5030395;28;20053;-90
2021/04/14 04:53:16;;;;;;;6.40;4.10;;;;;;;;;;5009078;28;20050;-90
2021/04/14 04:55:45;;;;;;;7.85;3.35;;;;;;;;;;5000274;28;20033;-89
2021/04/14 04:58:14;;;;;;;5.95;3.72;;;;;;;;;;5010182;28;20061;-89
2021/04/14 05:00:41;;;;;;;6.18;3.97;;;;;;;;;;5008510;28;20667;-86
2021/04/14 05:03:07;;;;;;;6.05;4.18;;;;;;;;;;5015573;28;20148;-85
2021/04/14 05:05:36;;;;;;;8.38;4.40;;;;;;;;;;4990295;28;20042;-85
2021/04/14 05:08:06;;;;;;;5.65;3.83;;;;;;;;;;5017070;28;20558;-86
2021/04/14 05:10:53;;;;;;;4.90;3.50;;;;;;;;;;4989019;28;20180;-85
2021/04/14 05:13:20;;;;;;;5.13;2.97;;;;;;;;;;5020528;28;20183;-83
2021/04/14 05:15:46;;;;;;;5.93;3.00;;;;;;;;;;5028660;28;20046;-89
2021/04/14 05:18:12;;;;;;;5.47;3.22;;;;;;;;;;4992344;28;20669;-89
2021/04/14 05:20:39;;;;;;;5.90;3.90;;;;;;;;;;4998872;28;20372;-89
2021/04/14 05:23:06;;;;;;;6.70;3.30;;;;;;;;;;4988634;28;20490;-89
2021/04/14 05:25:33;;;;;;;5.20;3.72;;;;;;;;;;4979707;28;20101;-89
2021/04/14 05:28:06;;;;;;;6.57;4.25;;;;;;;;;;4964867;28;20041;-89
2021/04/14 05:30:35;;;;;;;6.63;4.07;;;;;;;;;;4952008;28;20118;-89
2021/04/14 05:33:04;;;;;;;6.90;4.32;;;;;;;;;;4966882;28;20050;-89
2021/04/14 05:35:40;;;;;;;6.47;4.30;;;;;;;;;;4976089;28;20073;-89
2021/04/14 05:38:07;;;;;;;9.30;4.32;;;;;;;;;;4977690;28;20057;-90
2021/04/14 05:40:37;;;;;;;7.60;3.67;;;;;;;;;;4983891;28;20253;-90
2021/04/14 05:43:25;;;;;;;7.20;3.75;;;;;;;;;;4984977;28;20137;-90
2021/04/14 05:45:59;;;;;;;6.63;4.22;;;;;;;;;;4981501;28;20050;-90
2021/04/14 05:48:25;;;;;;;7.00;4.30;;;;;;;;;;4968916;28;20053;-90
2021/04/14 05:50:52;;;;;;;7.70;4.50;;;;;;;;;;4960592;28;20498;-91
2021/04/14 05:53:20;;;;;;;7.47;4.82;;;;;;;;;;4977977;28;20043;-91
2021/04/14 05:55:47;;;;;;;8.32;5.32;;;;;;;;;;4976681;28;20046;-91
2021/04/14 05:58:13;;;;;;;9.93;6.45;;;;;;;;;;4987636;28;20106;-91
2021/04/14 06:00:39;;;;;;;10.57;6.95;;;;;;;;;;4987987;28;20125;-89
2021/04/14 06:03:05;;;;;;;10.30;5.97;;;;;;;;;;4971255;28;20037;-90
2021/04/14 06:05:32;;;;;;;8.20;4.80;;;;;;;;;;4974754;28;20053;-85
2021/04/14 06:08:02;;;;;;;8.10;4.85;;;;;;;;;;4980031;28;20042;-92
2021/04/14 06:10:28;;;;;;;7.53;4.57;;;;;;;;;;4956066;28;20112;-91
2021/04/14 06:12:55;;;;;;;5.70;4.65;;;;;;;;;;4942667;28;20054;-90
2021/04/14 06:15:32;;;;;;;9.02;5.13;;;;;;;;;;4964543;28;20065;-88
2021/04/14 06:18:03;;;;;;;8.32;4.93;;;;;;;;;;4951192;28;20536;-90
2021/04/14 06:20:33;;;;;;;5.60;4.40;;;;;;;;;;4933056;28;20058;-90
2021/04/14 06:23:20;;;;;;;4.80;3.90;;;;;;;;;;4938403;28;20049;-90
2021/04/14 06:28:28;;;;;;;7.63;4.05;;;;;;;;;;4963000;28;20145;-91
2021/04/14 06:30:57;;;;;;;7.05;4.50;;;;;;;;;;4932857;28;20064;-89
2021/04/14 06:33:24;;;;;;;8.00;4.85;;;;;;;;;;5001990;28;20057;-90
2021/04/14 06:35:55;;;;;;;6.38;4.07;;;;;;;;;;4937932;28;20054;-89
2021/04/14 06:38:26;;;;;;;5.97;4.32;;;;;;;;;;4994102;28;20046;-90
2021/04/14 06:44:01;;;;;;;5.45;3.75;;;;;;;;;;4982194;28;20070;-91
2021/04/14 06:46:49;;;;;;;5.25;3.70;;;;;;;;;;4961377;28;20044;-90
2021/04/14 06:49:19;;;;;;;6.45;4.45;;;;;;;;;;4967275;28;20121;-90
2021/04/14 06:51:54;;;;;;;4.40;3.25;;;;;;;;;;4956007;28;20435;-90
2021/04/14 06:54:34;;;;;;;6.53;3.30;;;;;;;;;;4926149;28;20058;-91
2021/04/14 06:57:02;;;;;;;6.18;3.45;;;;;;;;;;4976171;28;20054;-91
2021/04/14 07:00:03;;;;;;;5.57;3.05;;;;;;;;;;4973726;28;20050;-90
2021/04/14 07:02:48;;;;;;;5.72;2.90;;;;;;;;;;4954284;28;20046;-90
2021/04/14 07:05:19;;;;;;;6.33;2.93;;;;;;;;;;4986548;28;20482;-91
2021/04/14 07:07:46;;;;;;;8.10;3.20;;;;;;;;;;4973417;28;20585;-91
2021/04/14 07:10:35;;;;;;;6.30;3.08;;;;;;;;;;4934497;28;20053;-90
2021/04/14 07:13:03;;;;;;;3.92;2.60;;;;;;;;;;4947920;28;20046;-92
2021/04/14 07:15:30;;;;;;;4.10;2.00;;;;;;;;;;4986341;28;20100;-91
2021/04/14 07:18:07;;;;;;;4.43;2.33;;;;;;;;;;4955546;28;20058;-92
2021/04/14 07:20:34;;;;;;;4.80;2.50;;;;;;;;;;5004070;28;20060;-91
2021/04/14 07:23:22;;;;;;;5.78;2.75;;;;;;;;;;5017132;28;20066;-91
2021/04/14 07:25:48;;;;;;;4.97;2.22;;;;;;;;;;5011913;28;20038;-91
2021/04/14 07:28:17;;;;;;;4.45;1.92;;;;;;;;;;5008154;28;20478;-91
2021/04/14 07:30:48;;;;;;;6.50;2.60;;;;;;;;;;5012855;28;20051;-92
2021/04/14 07:33:24;;;;;;;4.97;2.55;;;;;;;;;;5004022;28;20045;-91
2021/04/14 07:36:03;;;;;;;9.05;2.67;;;;;;;;;;5028021;28;20053;-91
2021/04/14 07:38:38;;;;;;;6.20;1.88;;;;;;;;;;5012237;28;20061;-91
2021/04/14 07:41:18;;;;;;;7.55;2.45;;;;;;;;;;5021651;28;20071;-92
2021/04/14 07:43:52;;;;;;;6.72;1.73;;;;;;;;;;4996799;28;20053;-91
2021/04/14 07:46:19;;;;;;;6.70;2.30;;;;;;;;;;5014183;28;20049;-91
2021/04/14 07:48:48;;;;;;;5.18;1.70;;;;;;;;;;5012147;28;20049;-92
2021/04/14 07:51:19;;;;;;;4.88;1.67;;;;;;;;;;5011323;28;20511;-92
2021/04/14 07:53:56;;;;;;;7.88;2.03;;;;;;;;;;4983884;28;20489;-92
2021/04/14 07:56:24;;;;;;;4.13;1.50;;;;;;;;;;5026536;28;20106;-91
2021/04/14 07:58:59;;;;;;;6.70;1.73;;;;;;;;;;4987652;28;20107;-88
2021/04/14 08:01:29;;;;;;;5.32;1.50;;;;;;;;;;4995176;28;20056;-92
2021/04/14 08:04:09;;;;;;;4.55;1.40;;;;;;;;;;5017070;28;20053;-91
2021/04/14 08:06:37;;;;;;;5.00;1.75;;;;;;;;;;5006884;28;20045;-92
2021/04/14 08:09:19;;;;;;;6.40;2.10;;;;;;;;;;4985206;28;20136;-91
2021/04/14 08:11:46;;;;;;;4.68;1.48;;;;;;;;;;4993274;28;20111;-91
2021/04/14 08:14:12;;;;;;;5.35;1.65;;;;;;;;;;4988957;28;20062;-92
2021/04/14 08:16:48;;;;;;;7.90;1.90;;;;;;;;;;5013055;28;20064;-91
2021/04/14 08:19:30;;;;;;;6.07;1.35;;;;;;;;;;5022991;28;20076;-92
2021/04/14 08:22:19;;;;;;;3.83;1.55;;;;;;;;;;4940061;28;20066;-92
2021/04/14 08:24:48;;;;;;;5.53;1.67;;;;;;;;;;4969713;28;20109;-92
2021/04/14 08:27:26;;;;;;;7.18;1.58;;;;;;;;;;4948018;28;20081;-92
2021/04/14 08:30:11;;;;;;;4.53;1.60;;;;;;;;;;4963198;28;20054;-92
2021/04/14 08:32:39;;;;;;;4.00;1.60;;;;;;;;;;4972771;28;20046;-92
2021/04/14 08:35:10;;;;;;;6.15;1.50;;;;;;;;;;4989059;28;20293;-91
2021/04/14 08:37:37;;;;;;;3.47;1.50;;;;;;;;;;4993278;28;20137;-91
2021/04/14 08:40:09;;;;;;;6.25;1.65;;;;;;;;;;4973455;28;20138;-91
2021/04/14 08:42:36;;;;;;;3.95;1.70;;;;;;;;;;4988872;28;20133;-91
2021/04/14 08:45:12;;;;;;;5.57;1.55;;;;;;;;;;4991897;28;20145;-92
2021/04/14 08:47:43;;;;;;;4.88;1.60;;;;;;;;;;4982731;28;20108;-93
2021/04/14 08:50:18;;;;;;;1.80;1.10;;;;;;;;;;4998224;28;20049;-92
2021/04/14 08:52:51;;;;;;;5.00;1.50;;;;;;;;;;4987771;28;20050;-91
2021/04/14 08:55:20;;;;;;;4.97;2.33;;;;;;;;;;4995499;28;20058;-93
2021/04/14 08:57:46;;;;;;;2.30;1.13;;;;;;;;;;4986839;28;20129;-92
2021/04/14 09:00:13;;;;;;;3.25;1.38;;;;;;;;;;4988771;28;20101;-91
2021/04/14 09:02:41;;;;;;;4.63;1.20;;;;;;;;;;4971086;28;20053;-92
2021/04/14 09:05:09;;;;;;;1.38;0.82;;;;;;;;;;4977277;28;20053;-91
2021/04/14 09:07:37;;;;;;;3.00;1.20;;;;;;;;;;5002387;28;20096;-92
2021/04/14 09:10:06;;;;;;;3.53;1.38;;;;;;;;;;5006836;28;20057;-92
2021/04/14 09:12:37;;;;;;;3.03;1.20;;;;;;;;;;4989981;28;20046;-92
2021/04/14 09:15:10;;;;;;;6.57;1.60;;;;;;;;;;5002063;28;20058;-92
2021/04/14 09:17:36;;;;;;;2.75;1.20;;;;;;;;;;5006501;28;20172;-92
2021/04/14 09:20:12;;;;;;;6.00;1.58;;;;;;;;;;4965022;28;20046;-93
2021/04/14 09:22:38;;;;;;;;;;;;;;;;;;5010272;28;20076;-92
2021/04/14 09:25:04;;;;;;;4.38;1.10;;;;;;;;;;5002578;28;19932;-91
2021/04/14 09:27:36;;;;;;;5.60;1.40;;;;;;;;;;5025450;28;20594;-92
2021/04/14 09:30:13;;;;;;;2.95;1.20;;;;;;;;;;5001875;28;20072;-92
2021/04/14 09:32:39;;;;;;;4.30;1.50;;;;;;;;;;5009556;28;20057;-92
2021/04/14 09:35:13;;;;;;;4.10;1.20;;;;;;;;;;4989109;28;20060;-91
2021/04/14 09:37:39;;;;;;;3.75;1.33;;;;;;;;;;5025629;28;20050;-92
2021/04/14 09:40:06;;;;;;;8.32;1.50;;;;;;;;;;5010267;28;20118;-92
2021/04/14 09:42:37;;;;;;;5.55;1.60;;;;;;;;;;5021055;28;20045;-92
2021/04/14 09:45:15;;;;;;;1.77;1.02;;;;;;;;;;5019984;28;20055;-91
2021/04/14 09:47:42;;;;;;;2.47;1.60;;;;;;;;;;5016482;28;20052;-91
2021/04/14 09:50:14;;;;;;;3.10;1.30;;;;;;;;;;5015766;28;20052;-92
2021/04/14 09:52:43;;;;;;;4.57;1.50;;;;;;;;;;5003141;28;20487;-92
2021/04/14 09:55:16;;;;;;;5.75;1.48;;;;;;;;;;5010153;28;20042;-91
2021/04/14 09:57:44;;;;;;;3.40;1.33;;;;;;;;;;5026870;28;20072;-92
2021/04/14 10:00:18;;;;;;;4.28;1.30;;;;;;;;;;5010228;28;20051;-92
2021/04/14 10:02:46;;;;;;;3.20;1.60;;;;;;;;;;5008271;28;20052;-92
2021/04/14 10:05:13;;;;;;;4.60;1.60;;;;;;;;;;5007433;28;20476;-91
2021/04/14 10:07:41;;;;;;;1.25;0.80;;;;;;;;;;5007435;28;20115;-92
2021/04/14 10:10:13;;;;;;;5.85;1.75;;;;;;;;;;5009781;28;20044;-91
2021/04/14 10:12:39;;;;;;;3.67;1.13;;;;;;;;;;4983685;28;20073;-88
2021/04/14 10:15:06;;;;;;;6.70;1.23;;;;;;;;;;5008369;28;20050;-85
2021/04/14 10:17:36;;;;;;;2.53;1.13;;;;;;;;;;5016029;28;20485;-87
2021/04/14 10:20:08;;;;;;;2.63;1.10;;;;;;;;;;5003327;28;20057;-90
2021/04/14 10:22:39;;;;;;;4.18;1.30;;;;;;;;;;5015576;28;20061;-90
2021/04/14 10:25:07;;;;;;;4.05;1.48;;;;;;;;;;5004009;28;20045;-90
2021/04/14 10:27:33;;;;;;;3.10;1.10;;;;;;;;;;5000996;28;20045;-90
2021/04/14 10:30:07;;;;;;;4.32;1.00;;;;;;;;;;5002326;28;20046;-90
2021/04/14 10:32:34;;;;;;;3.75;1.52;;;;;;;;;;5018258;28;20158;-90
2021/04/14 10:35:15;;;;;;;4.88;1.20;;;9.10;63.60;;;;;;5030654;28;20045;-89
2021/04/14 10:37:47;;;;;;;4.30;1.10;;;9.30;62.90;;;;;;4974652;28;20612;-90
2021/04/14 10:40:24;;;;;;;6.85;1.30;;;9.30;61.20;;;;;;4987626;28;20111;-91
2021/04/14 10:42:55;;;;;;;4.35;1.23;;;9.10;62.30;;;;;;5005000;28;20489;-89
2021/04/14 10:45:30;;;;;;;3.92;1.38;;;9.10;62.30;;;;;;4933965;28;20066;-92
2021/04/14 10:48:07;;;;;;;3.42;1.40;;;9.10;65.70;;;;;;4885470;29;20589;-93
2021/04/14 10:50:41;;;;;;;3.13;1.40;;;9.50;65.80;;;;;;4945506;28;20132;-93
2021/04/14 10:53:12;;;;;;;4.63;1.35;;;9.90;63.60;;;;;;4949632;28;20046;-92
2021/04/14 10:55:45;;;;;;;2.70;1.08;;;10.10;62.30;;;;;;4964247;28;20055;-88
2021/04/14 10:58:21;;;;;;;1.58;1.00;;;9.90;59.20;;;;;;4929511;28;20465;-93
2021/04/14 11:01:01;;;;;;;;;;;;;;;;;;;;;
2021/04/14 11:04:32;;;;;;;5.28;1.20;;;9.10;60.90;;;;;;4852908;28;20057;-93
2021/04/14 11:07:25;;;;;;;3.70;1.20;;;9.00;62.50;;;;;;4778032;29;20061;-92
2021/04/14 11:09:56;;;;;;;3.28;1.30;;;9.50;64.30;;;;;;4820736;29;20076;-92
2021/04/14 11:12:25;;;;;;;2.70;1.20;;;9.90;59.30;;;;;;4800326;29;20141;-92
2021/04/14 11:15:18;;;;;;;4.82;1.23;;;9.80;59.80;;;;;;4828334;29;20465;-93
2021/04/14 11:18:04;;;;;;;5.15;1.30;;;9.60;60.40;;;;;;4812633;29;20060;-93
2021/04/14 11:21:06;;;;;;;1.52;1.00;;;9.60;61.20;;;;;;4815897;29;20546;-92
2021/04/14 11:23:41;;;;;;;3.45;1.30;;;9.60;61.10;;;;;;4797435;29;20057;-93
2021/04/14 11:29:07;;;;;;;6.68;1.63;;;9.10;64.40;;;;;;4756593;29;20523;-93
2021/04/14 11:31:49;;;;;;;5.63;1.60;;;8.90;63.80;;;;;;4766142;29;20066;-94
2021/04/14 11:34:23;;;;;;;4.05;1.35;;;8.80;64.10;;;;;;4814945;29;20061;-94
2021/04/14 11:37:06;;;;;;;3.22;1.25;;;8.70;64.40;;;;;;4817376;29;20518;-93
2021/04/14 11:39:48;;;;;;;2.97;1.50;;;8.70;62.60;;;;;;4915074;28;20138;-92
2021/04/14 11:42:17;;;;;;;3.35;1.38;;;8.90;64.60;;;;;;4990392;28;20057;-90
2021/04/14 11:44:54;;;;;;;2.58;0.98;;;9.30;63.80;;;;;;4996292;28;20458;-93
2021/04/14 11:47:30;;;;;;;3.00;0.98;;;9.40;57.00;;;;;;4985368;28;20047;-88
2021/04/14 11:50:08;;;;;;;1.45;1.00;;;9.40;59.20;;;;;;4988411;28;20046;-92
2021/04/14 11:52:58;;;;;;;3.95;1.65;;;9.60;61.40;;;;;;4976946;28;20133;-91
2021/04/14 11:55:29;;;;;;;5.28;1.50;;;9.80;60.30;;;;;;4961449;28;20111;-93
2021/04/14 11:57:59;;;;;;;3.63;1.05;;;10.10;61.90;;;;;;4987783;28;20482;-93
2021/04/14 12:00:37;;;;;;;3.50;1.23;;;10.30;55.20;;;;;;4979638;28;20050;-92
2021/04/14 12:03:19;;;;;;;2.80;1.10;;;10.40;56.30;;;;;;4986964;28;20105;-91
2021/04/14 12:05:50;;;;;;;3.60;1.20;;;10.50;56.00;;;;;;4993512;28;20403;-92
2021/04/14 12:08:16;;;;;;;4.38;1.50;;;10.60;56.80;;;;;;4986649;28;20470;-93
2021/04/14 12:10:42;;;;;;;2.58;1.10;;;10.70;57.20;;;;;;4988403;28;20048;-92
2021/04/14 12:13:08;;;;;;;3.47;1.23;;;10.50;58.70;;;;;;4971552;28;20141;-94
2021/04/14 12:15:33;;;;;;;2.47;1.30;;;10.10;58.40;;;;;;4969491;28;20440;-93
2021/04/14 12:17:59;;;;;;;3.53;1.10;;;10.20;61.20;;;;;;4962441;28;20052;-92
2021/04/14 12:20:25;;;;;;;2.42;1.20;;;10.40;58.40;;;;;;4963598;28;20042;-94
2021/04/14 12:22:52;;;;;;;2.50;1.00;;;10.60;56.40;;;;;;5005209;28;20057;-92
2021/04/14 12:25:19;;;;;;;2.13;1.10;;;10.80;55.10;;;;;;4992534;28;20454;-93
2021/04/14 12:27:46;;;;;;;2.40;0.98;;;10.70;54.20;;;;;;4987415;28;20136;-91
2021/04/14 12:30:15;;;;;;;2.92;1.20;;;10.70;51.90;;;;;;4988029;28;20556;-93
2021/04/14 12:32:41;;;;;;;2.28;0.80;;;10.80;54.10;;;;;;5000905;28;20057;-94
2021/04/14 12:35:08;;;;;;;1.63;1.00;;;10.80;53.00;;;;;;5008780;28;20045;-93
2021/04/14 12:37:34;;;;;;;3.33;1.30;;;10.80;55.10;;;;;;5019116;28;20045;-94
2021/04/14 12:40:01;;;;;;;2.30;1.20;;;10.80;53.10;;;;;;5005796;28;20045;-94
2021/04/14 12:42:30;;;;;;;2.58;1.00;;;10.80;52.20;;;;;;4989323;28;20536;-94
2021/04/14 12:44:56;;;;;;;3.05;0.98;;;11.00;51.30;;;;;;5011787;28;20052;-94
2021/04/14 12:47:26;;;;;;;2.95;1.20;;;11.00;51.50;;;;;;4995931;28;20060;-94
2021/04/14 12:49:53;;;;;;;1.48;0.70;;;10.90;52.50;;;;;;5013470;28;20053;-94
2021/04/14 12:52:22;;;;;;;2.83;1.10;;;11.00;51.30;;;;;;5000815;28;20046;-94
2021/04/14 12:54:49;;;;;;;1.75;0.88;;;11.10;47.00;;;;;;5035655;28;20057;-94
2021/04/14 12:57:22;;;;;;;2.97;1.52;;;10.70;48.70;;;;;;4999345;28;20049;-93
2021/04/14 12:59:57;;;;;;;3.22;1.33;;;10.30;51.90;;;;;;5027453;28;20057;-92
2021/04/14 13:02:31;;;;;;;4.47;1.40;;;9.90;56.30;;;;;;4993462;28;20072;-93
2021/04/14 13:04:57;;;;;;;3.08;1.25;;;9.90;59.40;;;;;;5031045;28;20053;-93
2021/04/14 13:07:50;;;;;;;4.10;1.38;;;9.90;57.00;;;;;;5002303;28;20052;-93
2021/04/14 13:10:19;;;;;;;3.53;1.13;;;10.00;57.30;;;;;;5013394;28;20046;-93
2021/04/14 13:12:47;;;;;;;3.40;0.95;;;10.30;55.30;;;;;;5005883;28;20438;-94
2021/04/14 13:15:20;;;;;;;1.73;0.85;;;10.50;53.70;;;;;;4992442;28;20440;-93
2021/04/14 13:17:53;;;;;;;2.53;0.90;;;10.50;54.60;;;;;;5002990;28;20137;-93
2021/04/14 13:20:20;;;;;;;4.03;1.20;;;10.20;56.10;;;;;;4973351;28;20077;-93
2021/04/14 13:23:13;;;;;;;2.15;1.17;;;10.20;59.20;;;;;;5009301;28;20045;-93
2021/04/14 13:25:54;;;;;;;4.50;1.08;;;10.50;62.00;;;;;;4992129;28;20509;-94
2021/04/14 13:28:28;;;;;;;5.28;1.42;;;10.60;58.00;;;;;;4984791;28;20053;-94
2021/04/14 13:31:14;;;;;;;5.18;1.27;;;10.50;59.60;;;;;;5023336;28;20049;-93
2021/04/14 13:33:55;;;;;;;4.55;1.20;;;10.30;58.30;;;;;;4998194;28;20569;-92
2021/04/14 13:36:29;;;;;;;2.95;0.90;;;10.30;58.00;;;;;;4997625;28;20053;-92
2021/04/14 13:39:03;;;;;;;3.63;1.00;;;10.40;57.10;;;;;;5026826;28;20390;-92
2021/04/14 13:41:47;;;;;;;2.80;1.10;;;10.60;56.00;;;;;;5013613;28;20075;-93
2021/04/14 13:44:16;;;;;;;4.32;1.50;;;10.80;55.70;;;;;;5010884;28;20123;-91
2021/04/14 13:46:45;;;;;;;1.77;1.00;;;10.90;55.30;;;;;;4994294;28;20092;-92
2021/04/14 13:49:22;;;;;;;2.13;0.90;;;11.10;54.40;;;;;;5028487;28;20045;-90
2021/04/14 13:51:53;;;;;;;1.45;0.80;;;11.20;50.70;;;;;;5010587;28;20061;-90
2021/04/14 13:54:22;;;;;;;2.75;0.90;;;11.10;52.80;;;;;;5027290;28;20055;-91
2021/04/14 13:56:52;;;;;;;4.88;1.05;;;10.90;52.90;;;;;;5012307;28;20045;-90
2021/04/14 13:59:48;;;;;;;2.30;0.82;;;11.00;51.00;;;;;;5012713;28;20479;-90
2021/04/14 14:02:31;;;;;;;1.48;0.90;;;10.90;51.60;;;;;;4982166;28;20068;-90
2021/04/14 14:04:59;;;;;;;5.43;1.15;;;10.80;52.30;;;;;;4984914;28;20049;-90
2021/04/14 14:07:44;;;;;;;2.95;1.00;;;10.50;52.80;;;;;;5026611;28;20042;-90
2021/04/14 14:10:23;;;;;;;2.47;0.77;;;10.50;55.40;;;;;;5014556;28;20069;-89
2021/04/14 14:12:59;;;;;;;3.67;1.20;;;10.60;53.50;;;;;;5029762;28;20275;-91
2021/04/14 14:15:26;;;;;;;2.63;0.90;;;10.40;54.60;;;;;;5011045;28;20053;-90
2021/04/14 14:17:53;;;;;;;2.78;1.10;;;10.00;55.30;;;;;;5026441;28;20168;-92
2021/04/14 14:20:26;;;;;;;3.70;1.00;;;9.60;56.40;;;;;;5011970;28;20053;-91
2021/04/14 14:23:19;;;;;;;4.43;1.20;;;9.50;59.20;;;;;;4993381;28;20053;-89
2021/04/14 14:25:52;;;;;;;4.90;1.23;;;9.30;63.60;;;;;;5009147;28;20129;-90
2021/04/14 14:28:19;;;;;;;4.30;1.30;;;9.10;66.00;;;;;;5029003;28;20060;-92
2021/04/14 14:30:45;;;;;;;2.83;1.15;;;8.80;67.90;;;;;;5028365;28;20128;-91
2021/04/14 14:33:18;;;;;;;3.70;1.38;;;8.70;68.30;;;;;;5028445;28;20061;-90
2021/04/14 14:35:44;;;;;;;2.35;1.05;;;8.50;68.60;;;;;;5000980;28;20073;-90
2021/04/14 14:38:17;;;;;;;3.22;1.33;;;8.30;68.20;;;;;;5017632;28;20057;-90
2021/04/14 14:40:49;;;;;;;3.20;1.10;;;8.20;69.40;;;;;;5023769;28;20052;-91
2021/04/14 14:43:22;;;;;;;3.83;1.20;;;8.10;70.40;;;;;;4996292;28;20129;-90